KFRR/FRR METAR and TAF weather

Enter ICAO airport designator
Station Type Date Time Source
KFRR METAR 2021/04/13 07:15 UTC NOAA

KFRR 130715Z AUTO 00000KT 10SM BKN046 BKN050 OVC070 10/10 A2994 RMK AO1


Station Type Date Time Source
KFRR Decoded METAR 2021/04/13 07:15 UTC NOAA

Station name not available
Apr 13, 2021 - 03:15 AM EDT / 2021.04.13 0715 UTC
Wind: Calm:0
Visibility: 10 mile(s):0
Sky conditions: overcast
Temperature: 50 F (10 C)
Dew Point: 50 F (10 C)
Relative Humidity: 100%
Pressure (altimeter): 29.94 in. Hg (1013 hPa)
ob: KFRR 130715Z AUTO 00000KT 10SM BKN046 BKN050 OVC070 10/10 A2994 RMK AO1
cycle: 7

Station Type Date Time Source
KFRR TAF UTC NOAA

Error!

Example: see airport list